Humble, Texas
Current Conditions -  °F | °C
As of 2:53 AM on Sunday 23 Nov 2014 (Local Time) from KIAH Reporting Station
Overcast Overcast  
Wind Chill: 62°   Ceiling: 900
Heat Index: 62°   Visibility: 10mi
Dew Point: 61°   Wind: 0mph
Humidity: 96%   Direction: NA
Pressure: 29.65"   Gusts: NA
Location:  30°N, 95.27°W
Report Text: KIAH 230853Z 00000KT 10SM BKN009 OVC015 17/16 A2965 RMK AO2 SLP040 60023 T01670161 55027
Loading
Personal Weather Stations






























Interactive Weather Map New forecast layout! Learn more

10-Day Weather Forecast

Advertisements
Track Severe Weather on mobile